Rosecrans Memorial Airport St Joseph US
ICAO: KSTJ
IATA: STJ
Category: Medium
Scheduled Services: No

Elevation: 826 ft
TransAlt. 18000 ft.

Airport Communications:
ST JOSEPH APP/DEP:120.35
ATIS:125.05
CTAF:126.9
GND:121.9
ANG COMD POST:34.94
ST JOSEPH TWR:126.9
UNICOM:122.95

KSTJ Zoom In..

Runways:

(A) RW 13 length 4797 ft width 75 ft
---- / hdg 132

(B) RW 17 length 8061 ft width 150 ft
---- / hdg 176

(C) RW 31 length 4797 ft width 75 ft
---- / hdg 312

(D) RW 35 length 8061 ft width 150 ft
ILS 110.30 / hdg 356

Location; KSTJ
Day. 29 / Time. 21.53 Zulu
* Altimeter: 30.13
* Temperature: 26° c. 78.8°f.
* Wind from: 330° Speed 11 kn.
Dewpoint: 07° c.
Visibility: 10 Statute Miles.
Clouds: Clear (automated report).

KSTJ 292153Z 33011KT 10SM CLR 26/07 A3013 RMK AO2 SLP199 T02610067


Wind From 330°
Speed 11 kn.

 
 
jpsmedia worldairports.se 2020   terms of use